sensor_id;sensor_type;location;lat;lon;timestamp;temperature;humidity
70801;DHT22;59616;52.170;5.386;2022-09-09T00:00:38;16.60;81.60
70801;DHT22;59616;52.170;5.386;2022-09-09T00:03:14;16.60;81.60
70801;DHT22;59616;52.170;5.386;2022-09-09T00:09:21;16.60;81.80
70801;DHT22;59616;52.170;5.386;2022-09-09T00:11:28;16.60;81.60
70801;DHT22;59616;52.170;5.386;2022-09-09T00:14:00;16.60;81.40
70801;DHT22;59616;52.170;5.386;2022-09-09T00:16:33;16.60;81.70
70801;DHT22;59616;52.170;5.386;2022-09-09T00:19:07;16.60;81.80
70801;DHT22;59616;52.170;5.386;2022-09-09T00:21:39;16.60;81.70
70801;DHT22;59616;52.170;5.386;2022-09-09T00:24:34;16.60;81.50
70801;DHT22;59616;52.170;5.386;2022-09-09T00:27:11;16.60;81.50
70801;DHT22;59616;52.170;5.386;2022-09-09T00:29:56;16.60;81.60
70801;DHT22;59616;52.170;5.386;2022-09-09T00:32:28;16.50;81.80
70801;DHT22;59616;52.170;5.386;2022-09-09T00:35:03;16.50;82.00
70801;DHT22;59616;52.170;5.386;2022-09-09T00:37:32;16.50;82.00
70801;DHT22;59616;52.170;5.386;2022-09-09T00:40:02;16.50;82.00
70801;DHT22;59616;52.170;5.386;2022-09-09T00:42:36;16.50;82.00
70801;DHT22;59616;52.170;5.386;2022-09-09T00:45:43;16.40;81.60
70801;DHT22;59616;52.170;5.386;2022-09-09T00:48:13;16.40;81.70
70801;DHT22;59616;52.170;5.386;2022-09-09T00:50:59;16.30;81.70
70801;DHT22;59616;52.170;5.386;2022-09-09T00:56:20;16.30;82.10
70801;DHT22;59616;52.170;5.386;2022-09-09T00:59:07;16.30;82.20
70801;DHT22;59616;52.170;5.386;2022-09-09T01:01:38;16.30;82.30
70801;DHT22;59616;52.170;5.386;2022-09-09T01:04:13;16.30;82.20
70801;DHT22;59616;52.170;5.386;2022-09-09T01:06:44;16.20;82.20
70801;DHT22;59616;52.170;5.386;2022-09-09T01:11:55;16.10;82.40
70801;DHT22;59616;52.170;5.386;2022-09-09T01:17:30;16.00;82.60
70801;DHT22;59616;52.170;5.386;2022-09-09T01:20:14;16.00;82.60
70801;DHT22;59616;52.170;5.386;2022-09-09T01:22:56;16.00;82.70
70801;DHT22;59616;52.170;5.386;2022-09-09T01:28:32;15.90;82.80
70801;DHT22;59616;52.170;5.386;2022-09-09T01:31:06;15.90;83.00
70801;DHT22;59616;52.170;5.386;2022-09-09T01:33:41;15.90;83.10
70801;DHT22;59616;52.170;5.386;2022-09-09T01:36:10;15.90;83.10
70801;DHT22;59616;52.170;5.386;2022-09-09T01:38:48;15.80;83.10
70801;DHT22;59616;52.170;5.386;2022-09-09T01:41:15;15.80;83.10
70801;DHT22;59616;52.170;5.386;2022-09-09T01:43:50;15.80;83.10
70801;DHT22;59616;52.170;5.386;2022-09-09T01:46:20;15.70;83.10
70801;DHT22;59616;52.170;5.386;2022-09-09T01:48:49;15.80;83.20
70801;DHT22;59616;52.170;5.386;2022-09-09T01:51:17;15.80;83.20
70801;DHT22;59616;52.170;5.386;2022-09-09T01:53:45;15.70;83.20
70801;DHT22;59616;52.170;5.386;2022-09-09T01:56:28;15.70;83.20
70801;DHT22;59616;52.170;5.386;2022-09-09T02:02:13;15.70;83.10
70801;DHT22;59616;52.170;5.386;2022-09-09T02:04:50;15.60;83.20
70801;DHT22;59616;52.170;5.386;2022-09-09T02:07:40;15.60;83.40
70801;DHT22;59616;52.170;5.386;2022-09-09T02:10:37;15.60;83.40
70801;DHT22;59616;52.170;5.386;2022-09-09T02:13:16;15.60;83.30
70801;DHT22;59616;52.170;5.386;2022-09-09T02:18:28;15.50;83.20
70801;DHT22;59616;52.170;5.386;2022-09-09T02:20:56;15.50;83.30
70801;DHT22;59616;52.170;5.386;2022-09-09T02:23:25;15.50;83.40
70801;DHT22;59616;52.170;5.386;2022-09-09T02:25:56;15.60;83.40
70801;DHT22;59616;52.170;5.386;2022-09-09T02:28:27;15.60;83.50
70801;DHT22;59616;52.170;5.386;2022-09-09T02:30:55;15.50;83.30
70801;DHT22;59616;52.170;5.386;2022-09-09T02:33:35;15.50;83.60
70801;DHT22;59616;52.170;5.386;2022-09-09T02:36:04;15.50;83.50
70801;DHT22;59616;52.170;5.386;2022-09-09T02:38:37;15.50;83.50
70801;DHT22;59616;52.170;5.386;2022-09-09T02:41:10;15.60;83.50
70801;DHT22;59616;52.170;5.386;2022-09-09T02:43:37;15.50;83.40
70801;DHT22;59616;52.170;5.386;2022-09-09T02:49:19;15.60;83.20
70801;DHT22;59616;52.170;5.386;2022-09-09T02:52:01;15.50;83.20
70801;DHT22;59616;52.170;5.386;2022-09-09T02:54:34;15.50;83.30
70801;DHT22;59616;52.170;5.386;2022-09-09T02:57:20;15.40;83.30
70801;DHT22;59616;52.170;5.386;2022-09-09T02:59:49;15.40;83.50
70801;DHT22;59616;52.170;5.386;2022-09-09T03:02:16;15.40;83.50
70801;DHT22;59616;52.170;5.386;2022-09-09T03:04:49;15.40;83.50
70801;DHT22;59616;52.170;5.386;2022-09-09T03:07:19;15.50;83.50
70801;DHT22;59616;52.170;5.386;2022-09-09T03:09:47;15.40;83.40
70801;DHT22;59616;52.170;5.386;2022-09-09T03:12:13;15.40;83.40
70801;DHT22;59616;52.170;5.386;2022-09-09T03:14:40;15.40;83.40
70801;DHT22;59616;52.170;5.386;2022-09-09T03:17:07;15.30;83.40
70801;DHT22;59616;52.170;5.386;2022-09-09T03:19:40;15.30;83.40
70801;DHT22;59616;52.170;5.386;2022-09-09T03:22:10;15.30;83.60
70801;DHT22;59616;52.170;5.386;2022-09-09T03:24:39;15.30;83.60
70801;DHT22;59616;52.170;5.386;2022-09-09T03:27:06;15.30;83.60
70801;DHT22;59616;52.170;5.386;2022-09-09T03:29:36;15.20;83.80
70801;DHT22;59616;52.170;5.386;2022-09-09T03:32:06;15.20;83.90
70801;DHT22;59616;52.170;5.386;2022-09-09T03:34:33;15.20;84.00
70801;DHT22;59616;52.170;5.386;2022-09-09T03:37:00;15.20;84.00
70801;DHT22;59616;52.170;5.386;2022-09-09T03:39:27;15.20;83.90
70801;DHT22;59616;52.170;5.386;2022-09-09T03:41:55;15.20;83.80
70801;DHT22;59616;52.170;5.386;2022-09-09T03:44:22;15.20;83.60
70801;DHT22;59616;52.170;5.386;2022-09-09T03:46:49;15.20;83.70
70801;DHT22;59616;52.170;5.386;2022-09-09T03:49:16;15.20;83.60
70801;DHT22;59616;52.170;5.386;2022-09-09T03:51:43;15.20;83.70
70801;DHT22;59616;52.170;5.386;2022-09-09T03:54:12;15.20;83.90
70801;DHT22;59616;52.170;5.386;2022-09-09T03:56:39;15.10;84.00
70801;DHT22;59616;52.170;5.386;2022-09-09T03:59:09;15.10;84.00
70801;DHT22;59616;52.170;5.386;2022-09-09T04:01:36;15.10;84.00
70801;DHT22;59616;52.170;5.386;2022-09-09T04:04:03;15.10;83.90
70801;DHT22;59616;52.170;5.386;2022-09-09T04:06:29;15.10;84.00
70801;DHT22;59616;52.170;5.386;2022-09-09T04:08:56;15.10;84.00
70801;DHT22;59616;52.170;5.386;2022-09-09T04:11:25;15.00;84.10
70801;DHT22;59616;52.170;5.386;2022-09-09T04:13:54;15.10;84.00
70801;DHT22;59616;52.170;5.386;2022-09-09T04:16:21;15.00;84.00
70801;DHT22;59616;52.170;5.386;2022-09-09T04:18:48;15.00;84.10
70801;DHT22;59616;52.170;5.386;2022-09-09T04:21:16;15.00;84.00
70801;DHT22;59616;52.170;5.386;2022-09-09T04:23:43;14.90;84.10
70801;DHT22;59616;52.170;5.386;2022-09-09T04:26:10;15.00;84.20
70801;DHT22;59616;52.170;5.386;2022-09-09T04:28:38;15.00;85.10
70801;DHT22;59616;52.170;5.386;2022-09-09T04:31:16;15.00;84.60
70801;DHT22;59616;52.170;5.386;2022-09-09T04:33:46;15.00;84.10
70801;DHT22;59616;52.170;5.386;2022-09-09T04:36:13;15.00;84.10
70801;DHT22;59616;52.170;5.386;2022-09-09T04:38:40;15.00;84.20
70801;DHT22;59616;52.170;5.386;2022-09-09T04:41:08;15.10;84.40
70801;DHT22;59616;52.170;5.386;2022-09-09T04:43:39;15.10;84.20
70801;DHT22;59616;52.170;5.386;2022-09-09T04:46:07;15.20;84.30
70801;DHT22;59616;52.170;5.386;2022-09-09T04:48:34;15.20;84.20
70801;DHT22;59616;52.170;5.386;2022-09-09T04:51:05;15.20;84.00
70801;DHT22;59616;52.170;5.386;2022-09-09T04:53:33;15.20;84.30
70801;DHT22;59616;52.170;5.386;2022-09-09T04:56:02;15.20;84.30
70801;DHT22;59616;52.170;5.386;2022-09-09T04:58:31;15.10;84.20
70801;DHT22;59616;52.170;5.386;2022-09-09T05:01:10;15.10;84.20
70801;DHT22;59616;52.170;5.386;2022-09-09T05:03:40;15.10;84.30
70801;DHT22;59616;52.170;5.386;2022-09-09T05:06:11;15.10;84.50
70801;DHT22;59616;52.170;5.386;2022-09-09T05:08:39;15.10;84.60
70801;DHT22;59616;52.170;5.386;2022-09-09T05:11:21;15.10;84.40
70801;DHT22;59616;52.170;5.386;2022-09-09T05:13:52;15.10;84.40
70801;DHT22;59616;52.170;5.386;2022-09-09T05:16:20;15.10;84.40
70801;DHT22;59616;52.170;5.386;2022-09-09T05:18:47;15.10;84.40
70801;DHT22;59616;52.170;5.386;2022-09-09T05:21:17;15.10;84.50
70801;DHT22;59616;52.170;5.386;2022-09-09T05:23:45;15.10;84.40
70801;DHT22;59616;52.170;5.386;2022-09-09T05:26:17;15.10;84.70
70801;DHT22;59616;52.170;5.386;2022-09-09T05:28:46;15.10;84.70
70801;DHT22;59616;52.170;5.386;2022-09-09T05:31:16;15.10;84.50
70801;DHT22;59616;52.170;5.386;2022-09-09T05:33:45;15.10;84.50
70801;DHT22;59616;52.170;5.386;2022-09-09T05:36:15;15.10;84.70
70801;DHT22;59616;52.170;5.386;2022-09-09T05:38:44;15.10;84.70
70801;DHT22;59616;52.170;5.386;2022-09-09T05:41:13;15.10;84.80
70801;DHT22;59616;52.170;5.386;2022-09-09T05:43:42;15.10;84.80
70801;DHT22;59616;52.170;5.386;2022-09-09T05:46:16;15.10;84.70
70801;DHT22;59616;52.170;5.386;2022-09-09T05:48:46;15.20;84.90
70801;DHT22;59616;52.170;5.386;2022-09-09T05:51:19;15.20;84.90
70801;DHT22;59616;52.170;5.386;2022-09-09T05:53:47;15.10;84.80
70801;DHT22;59616;52.170;5.386;2022-09-09T05:56:22;15.20;84.90
70801;DHT22;59616;52.170;5.386;2022-09-09T05:58:51;15.20;84.90
70801;DHT22;59616;52.170;5.386;2022-09-09T06:03:49;15.20;85.10
70801;DHT22;59616;52.170;5.386;2022-09-09T06:06:18;15.30;85.00
70801;DHT22;59616;52.170;5.386;2022-09-09T06:08:48;15.30;85.10
70801;DHT22;59616;52.170;5.386;2022-09-09T06:11:19;15.30;85.10
70801;DHT22;59616;52.170;5.386;2022-09-09T06:13:46;15.40;85.10
70801;DHT22;59616;52.170;5.386;2022-09-09T06:16:17;15.40;85.00
70801;DHT22;59616;52.170;5.386;2022-09-09T06:18:44;15.40;85.00
70801;DHT22;59616;52.170;5.386;2022-09-09T06:21:15;15.50;85.20
70801;DHT22;59616;52.170;5.386;2022-09-09T06:23:43;15.50;85.20
70801;DHT22;59616;52.170;5.386;2022-09-09T06:26:16;15.60;85.10
70801;DHT22;59616;52.170;5.386;2022-09-09T06:28:49;15.60;85.00
70801;DHT22;59616;52.170;5.386;2022-09-09T06:31:18;15.60;84.90
70801;DHT22;59616;52.170;5.386;2022-09-09T06:33:54;15.70;85.00
70801;DHT22;59616;52.170;5.386;2022-09-09T06:36:25;15.70;85.00
70801;DHT22;59616;52.170;5.386;2022-09-09T06:38:52;15.70;85.20
70801;DHT22;59616;52.170;5.386;2022-09-09T06:41:21;15.80;85.20
70801;DHT22;59616;52.170;5.386;2022-09-09T06:43:48;16.00;85.30
70801;DHT22;59616;52.170;5.386;2022-09-09T06:46:26;16.10;85.20
70801;DHT22;59616;52.170;5.386;2022-09-09T06:48:55;16.30;85.00
70801;DHT22;59616;52.170;5.386;2022-09-09T06:51:25;16.50;84.50
70801;DHT22;59616;52.170;5.386;2022-09-09T06:53:56;16.50;84.30
70801;DHT22;59616;52.170;5.386;2022-09-09T06:56:27;16.60;84.30
70801;DHT22;59616;52.170;5.386;2022-09-09T06:58:58;16.60;84.10
70801;DHT22;59616;52.170;5.386;2022-09-09T07:01:31;16.70;84.10
70801;DHT22;59616;52.170;5.386;2022-09-09T07:04:01;16.80;84.00
70801;DHT22;59616;52.170;5.386;2022-09-09T07:06:35;16.90;83.90
70801;DHT22;59616;52.170;5.386;2022-09-09T07:09:05;17.00;83.60
70801;DHT22;59616;52.170;5.386;2022-09-09T07:11:46;17.10;83.30
70801;DHT22;59616;52.170;5.386;2022-09-09T07:14:14;17.20;83.00
70801;DHT22;59616;52.170;5.386;2022-09-09T07:16:45;17.40;82.90
70801;DHT22;59616;52.170;5.386;2022-09-09T07:19:15;17.40;82.70
70801;DHT22;59616;52.170;5.386;2022-09-09T07:21:42;17.60;82.50
70801;DHT22;59616;52.170;5.386;2022-09-09T07:24:12;17.60;82.30
70801;DHT22;59616;52.170;5.386;2022-09-09T07:26:41;17.60;82.20
70801;DHT22;59616;52.170;5.386;2022-09-09T07:29:08;17.60;82.10
70801;DHT22;59616;52.170;5.386;2022-09-09T07:31:37;17.50;82.20
70801;DHT22;59616;52.170;5.386;2022-09-09T07:34:08;17.50;82.20
70801;DHT22;59616;52.170;5.386;2022-09-09T07:36:37;17.50;82.10
70801;DHT22;59616;52.170;5.386;2022-09-09T07:39:09;17.50;82.00
70801;DHT22;59616;52.170;5.386;2022-09-09T07:41:45;17.60;82.10
70801;DHT22;59616;52.170;5.386;2022-09-09T07:44:17;17.70;82.40
70801;DHT22;59616;52.170;5.386;2022-09-09T07:46:48;18.00;81.90
70801;DHT22;59616;52.170;5.386;2022-09-09T07:49:19;18.20;81.60
70801;DHT22;59616;52.170;5.386;2022-09-09T07:51:55;18.40;80.90
70801;DHT22;59616;52.170;5.386;2022-09-09T07:54:22;18.70;80.10
70801;DHT22;59616;52.170;5.386;2022-09-09T07:56:51;18.90;79.60
70801;DHT22;59616;52.170;5.386;2022-09-09T07:59:21;19.00;78.90
70801;DHT22;59616;52.170;5.386;2022-09-09T08:01:52;19.10;78.40
70801;DHT22;59616;52.170;5.386;2022-09-09T08:04:26;19.20;78.40
70801;DHT22;59616;52.170;5.386;2022-09-09T08:06:56;19.20;78.20
70801;DHT22;59616;52.170;5.386;2022-09-09T08:09:26;19.20;77.90
70801;DHT22;59616;52.170;5.386;2022-09-09T08:12:05;19.10;77.90
70801;DHT22;59616;52.170;5.386;2022-09-09T08:14:35;19.10;77.80
70801;DHT22;59616;52.170;5.386;2022-09-09T08:17:02;19.00;78.00
70801;DHT22;59616;52.170;5.386;2022-09-09T08:19:31;19.00;77.70
70801;DHT22;59616;52.170;5.386;2022-09-09T08:22:00;19.00;77.60
70801;DHT22;59616;52.170;5.386;2022-09-09T08:24:29;18.90;77.50
70801;DHT22;59616;52.170;5.386;2022-09-09T08:26:56;18.70;77.80
70801;DHT22;59616;52.170;5.386;2022-09-09T08:29:23;18.60;77.90
70801;DHT22;59616;52.170;5.386;2022-09-09T08:31:54;18.60;78.10
70801;DHT22;59616;52.170;5.386;2022-09-09T08:34:22;18.50;78.30
70801;DHT22;59616;52.170;5.386;2022-09-09T08:36:50;18.50;78.20
70801;DHT22;59616;52.170;5.386;2022-09-09T08:39:21;18.40;78.50
70801;DHT22;59616;52.170;5.386;2022-09-09T08:47:35;18.30;78.50
70801;DHT22;59616;52.170;5.386;2022-09-09T08:50:25;18.40;78.50
70801;DHT22;59616;52.170;5.386;2022-09-09T08:53:13;18.40;78.20
70801;DHT22;59616;52.170;5.386;2022-09-09T08:55:56;18.50;78.30
70801;DHT22;59616;52.170;5.386;2022-09-09T08:58:33;18.60;78.00
70801;DHT22;59616;52.170;5.386;2022-09-09T09:09:31;18.90;77.30
70801;DHT22;59616;52.170;5.386;2022-09-09T09:12:00;18.90;77.20
70801;DHT22;59616;52.170;5.386;2022-09-09T09:14:35;18.80;76.90
70801;DHT22;59616;52.170;5.386;2022-09-09T09:17:14;18.80;77.10
70801;DHT22;59616;52.170;5.386;2022-09-09T09:19:43;18.70;77.30
70801;DHT22;59616;52.170;5.386;2022-09-09T09:24:56;18.70;77.20
70801;DHT22;59616;52.170;5.386;2022-09-09T09:27:36;18.60;76.90
70801;DHT22;59616;52.170;5.386;2022-09-09T09:30:17;18.50;77.30
70801;DHT22;59616;52.170;5.386;2022-09-09T09:33:05;18.50;78.40
70801;DHT22;59616;52.170;5.386;2022-09-09T09:35:33;18.50;77.60
70801;DHT22;59616;52.170;5.386;2022-09-09T09:38:19;18.50;77.50
70801;DHT22;59616;52.170;5.386;2022-09-09T09:41:06;18.60;77.40
70801;DHT22;59616;52.170;5.386;2022-09-09T09:43:37;18.60;77.40
70801;DHT22;59616;52.170;5.386;2022-09-09T09:46:20;18.60;77.30
70801;DHT22;59616;52.170;5.386;2022-09-09T09:49:00;18.60;77.10
70801;DHT22;59616;52.170;5.386;2022-09-09T09:51:30;18.60;77.10
70801;DHT22;59616;52.170;5.386;2022-09-09T09:54:16;18.60;77.00
70801;DHT22;59616;52.170;5.386;2022-09-09T09:56:50;18.60;77.20
70801;DHT22;59616;52.170;5.386;2022-09-09T09:59:22;18.60;77.10
70801;DHT22;59616;52.170;5.386;2022-09-09T10:02:18;18.70;77.10
70801;DHT22;59616;52.170;5.386;2022-09-09T10:04:49;18.80;77.00
70801;DHT22;59616;52.170;5.386;2022-09-09T10:07:28;18.80;77.00
70801;DHT22;59616;52.170;5.386;2022-09-09T10:09:56;18.80;77.10
70801;DHT22;59616;52.170;5.386;2022-09-09T10:15:30;19.00;77.20
70801;DHT22;59616;52.170;5.386;2022-09-09T10:21:46;19.20;76.30
70801;DHT22;59616;52.170;5.386;2022-09-09T10:24:31;19.10;76.30
70801;DHT22;59616;52.170;5.386;2022-09-09T10:29:46;18.90;76.50
70801;DHT22;59616;52.170;5.386;2022-09-09T10:35:02;18.70;76.80
70801;DHT22;59616;52.170;5.386;2022-09-09T10:43:17;18.80;77.40
70801;DHT22;59616;52.170;5.386;2022-09-09T10:48:37;19.10;77.10
70801;DHT22;59616;52.170;5.386;2022-09-09T10:56:30;19.10;77.00
70801;DHT22;59616;52.170;5.386;2022-09-09T10:59:02;19.00;77.00
70801;DHT22;59616;52.170;5.386;2022-09-09T11:01:37;19.00;77.10
70801;DHT22;59616;52.170;5.386;2022-09-09T11:04:15;19.00;77.50
70801;DHT22;59616;52.170;5.386;2022-09-09T11:06:48;19.00;77.40
70801;DHT22;59616;52.170;5.386;2022-09-09T11:09:22;19.00;77.70
70801;DHT22;59616;52.170;5.386;2022-09-09T11:11:56;19.30;78.00
70801;DHT22;59616;52.170;5.386;2022-09-09T11:14:35;19.70;77.60
70801;DHT22;59616;52.170;5.386;2022-09-09T11:17:15;20.00;76.50
70801;DHT22;59616;52.170;5.386;2022-09-09T11:19:44;20.00;76.20
70801;DHT22;59616;52.170;5.386;2022-09-09T11:25:07;19.90;75.80
70801;DHT22;59616;52.170;5.386;2022-09-09T11:27:57;19.90;76.00
70801;DHT22;59616;52.170;5.386;2022-09-09T11:30:44;19.90;75.80
70801;DHT22;59616;52.170;5.386;2022-09-09T11:33:41;19.70;76.00
70801;DHT22;59616;52.170;5.386;2022-09-09T11:39:24;19.80;75.80
70801;DHT22;59616;52.170;5.386;2022-09-09T11:41:55;19.80;75.80
70801;DHT22;59616;52.170;5.386;2022-09-09T11:44:31;19.80;75.50
70801;DHT22;59616;52.170;5.386;2022-09-09T11:46:58;19.70;75.70
70801;DHT22;59616;52.170;5.386;2022-09-09T11:49:39;19.70;75.50
70801;DHT22;59616;52.170;5.386;2022-09-09T11:52:38;19.90;75.30
70801;DHT22;59616;52.170;5.386;2022-09-09T11:55:26;20.00;74.80
70801;DHT22;59616;52.170;5.386;2022-09-09T11:57:59;20.00;74.50
70801;DHT22;59616;52.170;5.386;2022-09-09T12:03:04;19.90;75.40
70801;DHT22;59616;52.170;5.386;2022-09-09T12:05:40;19.90;75.90
70801;DHT22;59616;52.170;5.386;2022-09-09T12:08:10;20.10;75.80
70801;DHT22;59616;52.170;5.386;2022-09-09T12:10:54;20.20;75.40
70801;DHT22;59616;52.170;5.386;2022-09-09T12:13:22;20.30;75.20
70801;DHT22;59616;52.170;5.386;2022-09-09T12:15:51;20.40;75.20
70801;DHT22;59616;52.170;5.386;2022-09-09T12:18:25;20.60;74.90
70801;DHT22;59616;52.170;5.386;2022-09-09T12:21:03;20.40;74.30
70801;DHT22;59616;52.170;5.386;2022-09-09T12:26:24;20.10;75.20
70801;DHT22;59616;52.170;5.386;2022-09-09T12:32:10;20.00;75.90
70801;DHT22;59616;52.170;5.386;2022-09-09T12:34:44;19.70;75.60
70801;DHT22;59616;52.170;5.386;2022-09-09T12:39:49;19.70;77.30
70801;DHT22;59616;52.170;5.386;2022-09-09T12:42:21;19.80;77.40
70801;DHT22;59616;52.170;5.386;2022-09-09T12:47:53;20.20;76.30
70801;DHT22;59616;52.170;5.386;2022-09-09T12:50:23;20.30;75.90
70801;DHT22;59616;52.170;5.386;2022-09-09T12:52:56;20.40;75.70
70801;DHT22;59616;52.170;5.386;2022-09-09T12:55:34;20.30;75.60
70801;DHT22;59616;52.170;5.386;2022-09-09T12:58:02;20.20;76.00
70801;DHT22;59616;52.170;5.386;2022-09-09T13:00:34;20.20;76.20
70801;DHT22;59616;52.170;5.386;2022-09-09T13:03:03;20.30;76.20
70801;DHT22;59616;52.170;5.386;2022-09-09T13:05:40;20.40;76.10
70801;DHT22;59616;52.170;5.386;2022-09-09T13:08:11;20.60;75.80
70801;DHT22;59616;52.170;5.386;2022-09-09T13:10:51;20.60;75.50
70801;DHT22;59616;52.170;5.386;2022-09-09T13:13:40;20.70;75.10
70801;DHT22;59616;52.170;5.386;2022-09-09T13:16:19;21.00;74.80
70801;DHT22;59616;52.170;5.386;2022-09-09T13:18:47;21.20;74.20
70801;DHT22;59616;52.170;5.386;2022-09-09T13:21:14;21.40;73.80
70801;DHT22;59616;52.170;5.386;2022-09-09T13:23:41;21.40;72.90
70801;DHT22;59616;52.170;5.386;2022-09-09T13:26:23;21.40;72.60
70801;DHT22;59616;52.170;5.386;2022-09-09T13:28:51;21.20;72.40
70801;DHT22;59616;52.170;5.386;2022-09-09T13:33:47;21.10;72.60
70801;DHT22;59616;52.170;5.386;2022-09-09T13:36:14;21.10;72.90
70801;DHT22;59616;52.170;5.386;2022-09-09T13:38:55;21.10;72.70
70801;DHT22;59616;52.170;5.386;2022-09-09T13:41:24;20.90;72.60
70801;DHT22;59616;52.170;5.386;2022-09-09T13:43:52;20.60;73.10
70801;DHT22;59616;52.170;5.386;2022-09-09T13:46:38;20.50;73.60
70801;DHT22;59616;52.170;5.386;2022-09-09T13:51:36;20.40;74.30
70801;DHT22;59616;52.170;5.386;2022-09-09T13:54:05;20.30;74.50
70801;DHT22;59616;52.170;5.386;2022-09-09T13:56:37;20.30;74.80
70801;DHT22;59616;52.170;5.386;2022-09-09T13:59:06;20.30;74.90
70801;DHT22;59616;52.170;5.386;2022-09-09T14:01:33;20.30;74.70
70801;DHT22;59616;52.170;5.386;2022-09-09T14:04:01;20.30;74.70
70801;DHT22;59616;52.170;5.386;2022-09-09T14:06:29;20.10;74.70
70801;DHT22;59616;52.170;5.386;2022-09-09T14:08:56;20.10;75.20
70801;DHT22;59616;52.170;5.386;2022-09-09T14:11:22;20.00;75.30
70801;DHT22;59616;52.170;5.386;2022-09-09T14:13:49;20.00;75.30
70801;DHT22;59616;52.170;5.386;2022-09-09T14:16:19;20.00;75.20
70801;DHT22;59616;52.170;5.386;2022-09-09T14:18:48;19.90;75.60
70801;DHT22;59616;52.170;5.386;2022-09-09T14:21:14;20.00;75.60
70801;DHT22;59616;52.170;5.386;2022-09-09T14:23:42;20.00;75.60
70801;DHT22;59616;52.170;5.386;2022-09-09T14:26:08;20.00;75.50
70801;DHT22;59616;52.170;5.386;2022-09-09T14:28:36;20.00;75.50
70801;DHT22;59616;52.170;5.386;2022-09-09T14:31:20;20.00;75.80
70801;DHT22;59616;52.170;5.386;2022-09-09T14:33:47;19.90;75.40
70801;DHT22;59616;52.170;5.386;2022-09-09T14:36:14;19.90;75.80
70801;DHT22;59616;52.170;5.386;2022-09-09T14:38:41;19.90;76.10
70801;DHT22;59616;52.170;5.386;2022-09-09T14:41:10;19.80;76.40
70801;DHT22;59616;52.170;5.386;2022-09-09T14:43:40;19.80;76.70
70801;DHT22;59616;52.170;5.386;2022-09-09T14:46:11;19.80;76.90
70801;DHT22;59616;52.170;5.386;2022-09-09T14:48:38;19.70;77.00
70801;DHT22;59616;52.170;5.386;2022-09-09T14:51:11;19.60;77.00
70801;DHT22;59616;52.170;5.386;2022-09-09T14:53:39;19.50;77.60
70801;DHT22;59616;52.170;5.386;2022-09-09T14:56:08;19.50;78.00
70801;DHT22;59616;52.170;5.386;2022-09-09T14:58:36;19.50;78.40
70801;DHT22;59616;52.170;5.386;2022-09-09T15:01:09;19.50;78.70
70801;DHT22;59616;52.170;5.386;2022-09-09T15:03:40;19.50;79.10
70801;DHT22;59616;52.170;5.386;2022-09-09T15:06:07;19.80;79.30
70801;DHT22;59616;52.170;5.386;2022-09-09T15:08:36;20.00;78.40
70801;DHT22;59616;52.170;5.386;2022-09-09T15:11:09;20.20;77.70
70801;DHT22;59616;52.170;5.386;2022-09-09T15:13:38;20.30;77.60
70801;DHT22;59616;52.170;5.386;2022-09-09T15:16:13;20.50;77.40
70801;DHT22;59616;52.170;5.386;2022-09-09T15:18:41;20.60;77.20
70801;DHT22;59616;52.170;5.386;2022-09-09T15:21:14;20.70;77.00
70801;DHT22;59616;52.170;5.386;2022-09-09T15:23:42;20.70;76.80
70801;DHT22;59616;52.170;5.386;2022-09-09T15:26:09;20.70;76.30
70801;DHT22;59616;52.170;5.386;2022-09-09T15:28:37;20.70;75.90
70801;DHT22;59616;52.170;5.386;2022-09-09T15:31:10;20.60;75.70
70801;DHT22;59616;52.170;5.386;2022-09-09T15:33:37;20.40;75.50
70801;DHT22;59616;52.170;5.386;2022-09-09T15:36:17;20.30;76.10
70801;DHT22;59616;52.170;5.386;2022-09-09T15:38:44;20.20;75.90
70801;DHT22;59616;52.170;5.386;2022-09-09T15:41:13;20.10;75.90
70801;DHT22;59616;52.170;5.386;2022-09-09T15:43:44;20.00;75.90
70801;DHT22;59616;52.170;5.386;2022-09-09T15:48:44;19.70;76.30
70801;DHT22;59616;52.170;5.386;2022-09-09T15:51:14;19.70;77.00
70801;DHT22;59616;52.170;5.386;2022-09-09T15:54:01;19.60;77.30
70801;DHT22;59616;52.170;5.386;2022-09-09T15:56:29;19.60;77.00
70801;DHT22;59616;52.170;5.386;2022-09-09T15:59:00;19.60;77.30
70801;DHT22;59616;52.170;5.386;2022-09-09T16:01:28;19.60;77.20
70801;DHT22;59616;52.170;5.386;2022-09-09T16:03:56;19.60;77.60
70801;DHT22;59616;52.170;5.386;2022-09-09T16:06:24;19.70;77.40
70801;DHT22;59616;52.170;5.386;2022-09-09T16:08:52;19.80;77.30
70801;DHT22;59616;52.170;5.386;2022-09-09T16:11:22;19.90;76.80
70801;DHT22;59616;52.170;5.386;2022-09-09T16:13:50;19.90;76.80
70801;DHT22;59616;52.170;5.386;2022-09-09T16:16:20;19.90;76.60
70801;DHT22;59616;52.170;5.386;2022-09-09T16:18:51;19.90;76.60
70801;DHT22;59616;52.170;5.386;2022-09-09T16:21:30;19.90;76.20
70801;DHT22;59616;52.170;5.386;2022-09-09T16:24:00;19.90;76.50
70801;DHT22;59616;52.170;5.386;2022-09-09T16:26:28;20.00;76.10
70801;DHT22;59616;52.170;5.386;2022-09-09T16:28:55;19.90;75.50
70801;DHT22;59616;52.170;5.386;2022-09-09T16:31:23;19.90;75.60
70801;DHT22;59616;52.170;5.386;2022-09-09T16:33:51;19.80;75.40
70801;DHT22;59616;52.170;5.386;2022-09-09T16:36:20;19.70;75.30
70801;DHT22;59616;52.170;5.386;2022-09-09T16:38:47;19.60;75.60
70801;DHT22;59616;52.170;5.386;2022-09-09T16:41:14;19.50;75.90
70801;DHT22;59616;52.170;5.386;2022-09-09T16:43:41;19.30;76.00
70801;DHT22;59616;52.170;5.386;2022-09-09T16:46:18;19.30;76.20
70801;DHT22;59616;52.170;5.386;2022-09-09T16:48:46;19.10;76.40
70801;DHT22;59616;52.170;5.386;2022-09-09T16:51:19;19.10;76.50
70801;DHT22;59616;52.170;5.386;2022-09-09T16:53:47;19.10;77.00
70801;DHT22;59616;52.170;5.386;2022-09-09T16:56:20;19.10;77.20
70801;DHT22;59616;52.170;5.386;2022-09-09T16:58:59;19.10;77.20
70801;DHT22;59616;52.170;5.386;2022-09-09T17:01:29;19.10;77.60
70801;DHT22;59616;52.170;5.386;2022-09-09T17:03:58;19.20;77.10
70801;DHT22;59616;52.170;5.386;2022-09-09T17:06:28;19.20;77.00
70801;DHT22;59616;52.170;5.386;2022-09-09T17:08:56;19.20;76.90
70801;DHT22;59616;52.170;5.386;2022-09-09T17:11:24;19.20;77.10
70801;DHT22;59616;52.170;5.386;2022-09-09T17:13:52;19.10;77.20
70801;DHT22;59616;52.170;5.386;2022-09-09T17:16:21;19.10;77.50
70801;DHT22;59616;52.170;5.386;2022-09-09T17:18:49;19.00;77.80
70801;DHT22;59616;52.170;5.386;2022-09-09T17:21:19;18.90;78.00
70801;DHT22;59616;52.170;5.386;2022-09-09T17:23:46;18.80;78.20
70801;DHT22;59616;52.170;5.386;2022-09-09T17:26:15;18.80;78.20
70801;DHT22;59616;52.170;5.386;2022-09-09T17:28:43;18.70;78.70
70801;DHT22;59616;52.170;5.386;2022-09-09T17:31:11;18.70;78.70
70801;DHT22;59616;52.170;5.386;2022-09-09T17:33:40;18.70;79.10
70801;DHT22;59616;52.170;5.386;2022-09-09T17:36:13;18.70;79.10